sensor_id;sensor_type;location;lat;lon;timestamp;P1;durP1;ratioP1;P2;durP2;ratioP2
40621;SDS011;26324;52.040;11.528;2023-08-08T00:00:21;1.27;;;0.65;;
40621;SDS011;26324;52.040;11.528;2023-08-08T00:02:48;2.78;;;0.68;;
40621;SDS011;26324;52.040;11.528;2023-08-08T00:05:16;1.90;;;0.35;;
40621;SDS011;26324;52.040;11.528;2023-08-08T00:07:43;3.70;;;0.68;;
40621;SDS011;26324;52.040;11.528;2023-08-08T00:10:11;0.90;;;0.30;;
40621;SDS011;26324;52.040;11.528;2023-08-08T00:12:38;3.60;;;0.63;;
40621;SDS011;26324;52.040;11.528;2023-08-08T00:15:05;1.70;;;0.80;;
40621;SDS011;26324;52.040;11.528;2023-08-08T00:17:33;1.00;;;0.30;;
40621;SDS011;26324;52.040;11.528;2023-08-08T00:20:01;6.13;;;0.70;;
40621;SDS011;26324;52.040;11.528;2023-08-08T00:22:28;1.27;;;0.68;;
40621;SDS011;26324;52.040;11.528;2023-08-08T00:24:56;1.70;;;0.55;;
40621;SDS011;26324;52.040;11.528;2023-08-08T00:27:23;3.63;;;0.82;;
40621;SDS011;26324;52.040;11.528;2023-08-08T00:29:51;1.17;;;0.52;;
40621;SDS011;26324;52.040;11.528;2023-08-08T00:32:20;2.25;;;0.60;;
40621;SDS011;26324;52.040;11.528;2023-08-08T00:34:48;1.30;;;0.55;;
40621;SDS011;26324;52.040;11.528;2023-08-08T00:37:15;2.47;;;0.63;;
40621;SDS011;26324;52.040;11.528;2023-08-08T00:39:42;1.33;;;0.60;;
40621;SDS011;26324;52.040;11.528;2023-08-08T00:42:12;3.15;;;0.80;;
40621;SDS011;26324;52.040;11.528;2023-08-08T00:44:40;1.70;;;0.70;;
40621;SDS011;26324;52.040;11.528;2023-08-08T00:47:08;2.25;;;0.80;;
40621;SDS011;26324;52.040;11.528;2023-08-08T00:49:37;2.88;;;1.23;;
40621;SDS011;26324;52.040;11.528;2023-08-08T00:52:06;1.40;;;0.52;;
40621;SDS011;26324;52.040;11.528;2023-08-08T00:54:34;2.08;;;0.55;;
40621;SDS011;26324;52.040;11.528;2023-08-08T00:57:01;1.88;;;0.63;;
40621;SDS011;26324;52.040;11.528;2023-08-08T00:59:29;1.55;;;0.60;;
40621;SDS011;26324;52.040;11.528;2023-08-08T01:01:58;3.00;;;0.80;;
40621;SDS011;26324;52.040;11.528;2023-08-08T01:04:26;1.23;;;0.50;;
40621;SDS011;26324;52.040;11.528;2023-08-08T01:06:55;0.85;;;0.52;;
40621;SDS011;26324;52.040;11.528;2023-08-08T01:09:32;5.68;;;1.00;;
40621;SDS011;26324;52.040;11.528;2023-08-08T01:12:04;1.35;;;0.80;;
40621;SDS011;26324;52.040;11.528;2023-08-08T01:14:34;4.43;;;0.65;;
40621;SDS011;26324;52.040;11.528;2023-08-08T01:17:03;1.80;;;0.73;;
40621;SDS011;26324;52.040;11.528;2023-08-08T01:19:32;1.75;;;0.85;;
40621;SDS011;26324;52.040;11.528;2023-08-08T01:24:31;0.88;;;0.57;;
40621;SDS011;26324;52.040;11.528;2023-08-08T01:27:01;1.52;;;0.55;;
40621;SDS011;26324;52.040;11.528;2023-08-08T01:29:28;1.48;;;0.60;;
40621;SDS011;26324;52.040;11.528;2023-08-08T01:31:56;1.38;;;0.75;;
40621;SDS011;26324;52.040;11.528;2023-08-08T01:34:25;3.42;;;0.80;;
40621;SDS011;26324;52.040;11.528;2023-08-08T01:36:56;1.50;;;0.50;;
40621;SDS011;26324;52.040;11.528;2023-08-08T01:39:27;4.60;;;0.77;;
40621;SDS011;26324;52.040;11.528;2023-08-08T01:41:58;2.05;;;1.02;;
40621;SDS011;26324;52.040;11.528;2023-08-08T01:44:27;1.60;;;0.57;;
40621;SDS011;26324;52.040;11.528;2023-08-08T01:46:55;2.00;;;0.73;;
40621;SDS011;26324;52.040;11.528;2023-08-08T01:49:23;1.80;;;1.00;;
40621;SDS011;26324;52.040;11.528;2023-08-08T01:51:50;3.63;;;0.95;;
40621;SDS011;26324;52.040;11.528;2023-08-08T01:54:19;1.50;;;0.80;;
40621;SDS011;26324;52.040;11.528;2023-08-08T01:56:47;5.40;;;0.95;;
40621;SDS011;26324;52.040;11.528;2023-08-08T01:59:14;2.42;;;1.23;;
40621;SDS011;26324;52.040;11.528;2023-08-08T02:01:42;1.98;;;0.68;;
40621;SDS011;26324;52.040;11.528;2023-08-08T02:04:09;2.15;;;0.95;;
40621;SDS011;26324;52.040;11.528;2023-08-08T02:06:37;2.65;;;0.98;;
40621;SDS011;26324;52.040;11.528;2023-08-08T02:09:05;2.67;;;0.93;;
40621;SDS011;26324;52.040;11.528;2023-08-08T02:11:34;2.60;;;1.00;;
40621;SDS011;26324;52.040;11.528;2023-08-08T02:14:01;2.08;;;0.50;;
40621;SDS011;26324;52.040;11.528;2023-08-08T02:16:29;2.15;;;0.90;;
40621;SDS011;26324;52.040;11.528;2023-08-08T02:18:56;2.20;;;1.05;;
40621;SDS011;26324;52.040;11.528;2023-08-08T02:21:24;5.57;;;1.15;;
40621;SDS011;26324;52.040;11.528;2023-08-08T02:23:51;2.72;;;1.30;;
40621;SDS011;26324;52.040;11.528;2023-08-08T02:26:18;1.27;;;0.68;;
40621;SDS011;26324;52.040;11.528;2023-08-08T02:31:16;4.68;;;0.82;;
40621;SDS011;26324;52.040;11.528;2023-08-08T02:33:50;1.20;;;0.55;;
40621;SDS011;26324;52.040;11.528;2023-08-08T02:36:18;2.60;;;0.98;;
40621;SDS011;26324;52.040;11.528;2023-08-08T02:38:45;3.05;;;0.88;;
40621;SDS011;26324;52.040;11.528;2023-08-08T02:41:13;1.38;;;0.88;;
40621;SDS011;26324;52.040;11.528;2023-08-08T02:43:41;1.42;;;0.60;;
40621;SDS011;26324;52.040;11.528;2023-08-08T02:46:08;2.22;;;0.75;;
40621;SDS011;26324;52.040;11.528;2023-08-08T02:48:36;2.20;;;0.88;;
40621;SDS011;26324;52.040;11.528;2023-08-08T02:51:03;1.80;;;0.90;;
40621;SDS011;26324;52.040;11.528;2023-08-08T02:53:31;3.35;;;0.80;;
40621;SDS011;26324;52.040;11.528;2023-08-08T02:55:59;1.23;;;0.73;;
40621;SDS011;26324;52.040;11.528;2023-08-08T02:58:30;1.25;;;0.60;;
40621;SDS011;26324;52.040;11.528;2023-08-08T03:00:59;2.47;;;0.82;;
40621;SDS011;26324;52.040;11.528;2023-08-08T03:03:26;3.28;;;1.00;;
40621;SDS011;26324;52.040;11.528;2023-08-08T03:05:54;1.70;;;0.80;;
40621;SDS011;26324;52.040;11.528;2023-08-08T03:08:22;2.45;;;0.98;;
40621;SDS011;26324;52.040;11.528;2023-08-08T03:10:49;2.22;;;1.02;;
40621;SDS011;26324;52.040;11.528;2023-08-08T03:13:17;1.55;;;0.90;;
40621;SDS011;26324;52.040;11.528;2023-08-08T03:15:44;1.85;;;0.52;;
40621;SDS011;26324;52.040;11.528;2023-08-08T03:18:12;2.35;;;0.85;;
40621;SDS011;26324;52.040;11.528;2023-08-08T03:20:39;2.22;;;0.80;;
40621;SDS011;26324;52.040;11.528;2023-08-08T03:23:08;4.85;;;0.82;;
40621;SDS011;26324;52.040;11.528;2023-08-08T03:25:37;1.10;;;0.55;;
40621;SDS011;26324;52.040;11.528;2023-08-08T03:28:04;1.75;;;1.00;;
40621;SDS011;26324;52.040;11.528;2023-08-08T03:30:32;1.40;;;0.73;;
40621;SDS011;26324;52.040;11.528;2023-08-08T03:32:59;1.70;;;0.80;;
40621;SDS011;26324;52.040;11.528;2023-08-08T03:35:28;1.23;;;0.80;;
40621;SDS011;26324;52.040;11.528;2023-08-08T03:37:55;2.10;;;0.85;;
40621;SDS011;26324;52.040;11.528;2023-08-08T03:40:23;1.38;;;0.70;;
40621;SDS011;26324;52.040;11.528;2023-08-08T03:42:51;1.10;;;0.65;;
40621;SDS011;26324;52.040;11.528;2023-08-08T03:45:18;2.17;;;0.80;;
40621;SDS011;26324;52.040;11.528;2023-08-08T03:47:45;2.53;;;0.90;;
40621;SDS011;26324;52.040;11.528;2023-08-08T03:50:13;2.70;;;0.98;;
40621;SDS011;26324;52.040;11.528;2023-08-08T03:52:40;2.83;;;0.70;;
40621;SDS011;26324;52.040;11.528;2023-08-08T03:55:11;2.22;;;0.75;;
40621;SDS011;26324;52.040;11.528;2023-08-08T03:57:39;1.20;;;0.70;;
40621;SDS011;26324;52.040;11.528;2023-08-08T04:00:07;1.83;;;0.68;;
40621;SDS011;26324;52.040;11.528;2023-08-08T04:02:41;1.40;;;0.80;;
40621;SDS011;26324;52.040;11.528;2023-08-08T04:05:08;1.58;;;0.80;;
40621;SDS011;26324;52.040;11.528;2023-08-08T04:07:36;1.25;;;0.68;;
40621;SDS011;26324;52.040;11.528;2023-08-08T04:10:03;1.33;;;0.70;;
40621;SDS011;26324;52.040;11.528;2023-08-08T04:12:31;2.47;;;0.85;;
40621;SDS011;26324;52.040;11.528;2023-08-08T04:14:59;2.67;;;0.82;;
40621;SDS011;26324;52.040;11.528;2023-08-08T04:17:27;1.40;;;0.80;;
40621;SDS011;26324;52.040;11.528;2023-08-08T04:19:55;2.35;;;0.85;;
40621;SDS011;26324;52.040;11.528;2023-08-08T04:22:22;5.15;;;1.02;;
40621;SDS011;26324;52.040;11.528;2023-08-08T04:24:49;1.42;;;0.80;;
40621;SDS011;26324;52.040;11.528;2023-08-08T04:27:17;2.40;;;0.90;;
40621;SDS011;26324;52.040;11.528;2023-08-08T04:29:45;2.67;;;0.85;;
40621;SDS011;26324;52.040;11.528;2023-08-08T04:32:12;1.35;;;0.80;;
40621;SDS011;26324;52.040;11.528;2023-08-08T04:34:39;1.10;;;0.75;;
40621;SDS011;26324;52.040;11.528;2023-08-08T04:37:07;2.95;;;0.90;;
40621;SDS011;26324;52.040;11.528;2023-08-08T04:39:34;1.88;;;1.10;;
40621;SDS011;26324;52.040;11.528;2023-08-08T04:42:01;2.10;;;0.88;;
40621;SDS011;26324;52.040;11.528;2023-08-08T04:44:29;2.05;;;0.90;;
40621;SDS011;26324;52.040;11.528;2023-08-08T04:46:57;1.90;;;1.10;;
40621;SDS011;26324;52.040;11.528;2023-08-08T04:49:24;2.35;;;1.05;;
40621;SDS011;26324;52.040;11.528;2023-08-08T04:51:52;2.22;;;0.98;;
40621;SDS011;26324;52.040;11.528;2023-08-08T04:54:19;2.97;;;1.23;;
40621;SDS011;26324;52.040;11.528;2023-08-08T04:56:47;4.07;;;1.35;;
40621;SDS011;26324;52.040;11.528;2023-08-08T04:59:14;2.22;;;1.33;;
40621;SDS011;26324;52.040;11.528;2023-08-08T05:01:41;1.80;;;1.20;;
40621;SDS011;26324;52.040;11.528;2023-08-08T05:04:09;1.88;;;1.02;;
40621;SDS011;26324;52.040;11.528;2023-08-08T05:06:37;1.85;;;1.13;;
40621;SDS011;26324;52.040;11.528;2023-08-08T05:09:04;1.77;;;1.17;;
40621;SDS011;26324;52.040;11.528;2023-08-08T05:11:31;2.40;;;1.23;;
40621;SDS011;26324;52.040;11.528;2023-08-08T05:13:59;2.58;;;1.30;;
40621;SDS011;26324;52.040;11.528;2023-08-08T05:16:26;1.80;;;1.00;;
40621;SDS011;26324;52.040;11.528;2023-08-08T05:18:53;3.17;;;1.65;;
40621;SDS011;26324;52.040;11.528;2023-08-08T05:21:21;2.88;;;1.23;;
40621;SDS011;26324;52.040;11.528;2023-08-08T05:23:48;1.67;;;1.20;;
40621;SDS011;26324;52.040;11.528;2023-08-08T05:26:16;3.45;;;1.10;;
40621;SDS011;26324;52.040;11.528;2023-08-08T05:28:43;2.67;;;0.93;;
40621;SDS011;26324;52.040;11.528;2023-08-08T05:31:11;2.58;;;1.25;;
40621;SDS011;26324;52.040;11.528;2023-08-08T05:33:38;2.08;;;1.00;;
40621;SDS011;26324;52.040;11.528;2023-08-08T05:36:05;2.80;;;1.20;;
40621;SDS011;26324;52.040;11.528;2023-08-08T05:38:33;2.92;;;1.23;;
40621;SDS011;26324;52.040;11.528;2023-08-08T05:41:01;2.42;;;1.23;;
40621;SDS011;26324;52.040;11.528;2023-08-08T05:43:28;1.30;;;1.02;;
40621;SDS011;26324;52.040;11.528;2023-08-08T05:45:56;1.75;;;1.33;;
40621;SDS011;26324;52.040;11.528;2023-08-08T05:48:24;3.63;;;1.05;;
40621;SDS011;26324;52.040;11.528;2023-08-08T05:50:51;1.30;;;0.90;;
40621;SDS011;26324;52.040;11.528;2023-08-08T05:53:19;2.42;;;1.20;;
40621;SDS011;26324;52.040;11.528;2023-08-08T05:55:46;3.30;;;1.27;;
40621;SDS011;26324;52.040;11.528;2023-08-08T05:58:14;4.18;;;1.02;;
40621;SDS011;26324;52.040;11.528;2023-08-08T06:00:41;2.67;;;0.90;;
40621;SDS011;26324;52.040;11.528;2023-08-08T06:03:09;1.20;;;0.73;;
40621;SDS011;26324;52.040;11.528;2023-08-08T06:05:36;2.55;;;1.13;;
40621;SDS011;26324;52.040;11.528;2023-08-08T06:08:04;2.00;;;1.13;;
40621;SDS011;26324;52.040;11.528;2023-08-08T06:10:33;2.05;;;1.00;;
40621;SDS011;26324;52.040;11.528;2023-08-08T06:13:01;1.77;;;1.20;;
40621;SDS011;26324;52.040;11.528;2023-08-08T06:15:29;2.85;;;1.05;;
40621;SDS011;26324;52.040;11.528;2023-08-08T06:17:56;2.25;;;1.00;;
40621;SDS011;26324;52.040;11.528;2023-08-08T06:20:24;1.48;;;0.80;;
40621;SDS011;26324;52.040;11.528;2023-08-08T06:22:51;2.17;;;0.95;;
40621;SDS011;26324;52.040;11.528;2023-08-08T06:25:19;3.97;;;1.02;;
40621;SDS011;26324;52.040;11.528;2023-08-08T06:27:46;1.02;;;0.80;;
40621;SDS011;26324;52.040;11.528;2023-08-08T06:30:16;1.50;;;0.80;;
40621;SDS011;26324;52.040;11.528;2023-08-08T06:32:43;4.25;;;0.95;;
40621;SDS011;26324;52.040;11.528;2023-08-08T06:35:11;1.95;;;0.93;;
40621;SDS011;26324;52.040;11.528;2023-08-08T06:37:39;1.75;;;0.88;;
40621;SDS011;26324;52.040;11.528;2023-08-08T06:40:06;1.38;;;0.88;;
40621;SDS011;26324;52.040;11.528;2023-08-08T06:42:34;2.03;;;0.85;;
40621;SDS011;26324;52.040;11.528;2023-08-08T06:45:02;1.33;;;0.88;;
40621;SDS011;26324;52.040;11.528;2023-08-08T06:47:29;1.50;;;0.75;;
40621;SDS011;26324;52.040;11.528;2023-08-08T06:49:57;1.15;;;0.55;;
40621;SDS011;26324;52.040;11.528;2023-08-08T06:52:24;2.80;;;0.98;;
40621;SDS011;26324;52.040;11.528;2023-08-08T06:54:52;1.88;;;0.80;;
40621;SDS011;26324;52.040;11.528;2023-08-08T06:57:19;2.53;;;0.57;;
40621;SDS011;26324;52.040;11.528;2023-08-08T06:59:46;1.83;;;0.68;;
40621;SDS011;26324;52.040;11.528;2023-08-08T07:02:18;0.98;;;0.70;;
40621;SDS011;26324;52.040;11.528;2023-08-08T07:04:46;1.58;;;0.68;;
40621;SDS011;26324;52.040;11.528;2023-08-08T07:07:14;2.35;;;0.70;;
40621;SDS011;26324;52.040;11.528;2023-08-08T07:09:41;1.50;;;0.93;;
40621;SDS011;26324;52.040;11.528;2023-08-08T07:12:09;2.10;;;0.73;;
40621;SDS011;26324;52.040;11.528;2023-08-08T07:14:36;3.20;;;1.08;;
40621;SDS011;26324;52.040;11.528;2023-08-08T07:17:04;2.10;;;1.33;;
40621;SDS011;26324;52.040;11.528;2023-08-08T07:19:31;2.05;;;0.90;;
40621;SDS011;26324;52.040;11.528;2023-08-08T07:21:59;1.10;;;0.90;;
40621;SDS011;26324;52.040;11.528;2023-08-08T07:24:26;1.27;;;0.77;;
40621;SDS011;26324;52.040;11.528;2023-08-08T07:26:55;1.65;;;0.77;;
40621;SDS011;26324;52.040;11.528;2023-08-08T07:29:24;1.40;;;0.90;;
40621;SDS011;26324;52.040;11.528;2023-08-08T07:31:52;2.08;;;1.33;;
40621;SDS011;26324;52.040;11.528;2023-08-08T07:34:20;2.47;;;1.23;;
40621;SDS011;26324;52.040;11.528;2023-08-08T07:36:47;6.18;;;1.48;;
40621;SDS011;26324;52.040;11.528;2023-08-08T07:39:15;1.58;;;1.17;;
40621;SDS011;26324;52.040;11.528;2023-08-08T07:41:43;3.90;;;1.75;;
40621;SDS011;26324;52.040;11.528;2023-08-08T07:44:10;2.08;;;0.98;;
40621;SDS011;26324;52.040;11.528;2023-08-08T07:46:37;1.40;;;1.17;;
40621;SDS011;26324;52.040;11.528;2023-08-08T07:49:05;3.40;;;1.30;;
40621;SDS011;26324;52.040;11.528;2023-08-08T07:51:33;1.92;;;1.13;;
40621;SDS011;26324;52.040;11.528;2023-08-08T07:54:00;2.38;;;1.23;;
40621;SDS011;26324;52.040;11.528;2023-08-08T07:56:28;1.83;;;1.00;;
40621;SDS011;26324;52.040;11.528;2023-08-08T07:58:56;1.52;;;1.15;;
40621;SDS011;26324;52.040;11.528;2023-08-08T08:01:23;2.67;;;1.08;;
40621;SDS011;26324;52.040;11.528;2023-08-08T08:03:52;3.45;;;1.38;;
40621;SDS011;26324;52.040;11.528;2023-08-08T08:06:19;2.47;;;1.20;;
40621;SDS011;26324;52.040;11.528;2023-08-08T08:08:47;1.17;;;0.90;;
40621;SDS011;26324;52.040;11.528;2023-08-08T08:11:14;3.20;;;1.17;;
40621;SDS011;26324;52.040;11.528;2023-08-08T08:16:10;1.48;;;0.98;;
40621;SDS011;26324;52.040;11.528;2023-08-08T08:18:37;4.32;;;0.95;;
40621;SDS011;26324;52.040;11.528;2023-08-08T08:21:05;2.92;;;0.90;;
40621;SDS011;26324;52.040;11.528;2023-08-08T08:23:32;2.53;;;1.20;;
40621;SDS011;26324;52.040;11.528;2023-08-08T08:25:59;1.67;;;0.90;;
40621;SDS011;26324;52.040;11.528;2023-08-08T08:28:27;2.35;;;1.00;;
40621;SDS011;26324;52.040;11.528;2023-08-08T08:30:54;1.85;;;1.30;;
40621;SDS011;26324;52.040;11.528;2023-08-08T08:33:21;1.73;;;1.00;;
40621;SDS011;26324;52.040;11.528;2023-08-08T08:35:49;1.90;;;0.90;;
40621;SDS011;26324;52.040;11.528;2023-08-08T08:38:16;2.58;;;0.90;;
40621;SDS011;26324;52.040;11.528;2023-08-08T08:40:44;2.00;;;1.00;;
40621;SDS011;26324;52.040;11.528;2023-08-08T08:43:15;3.42;;;1.13;;
40621;SDS011;26324;52.040;11.528;2023-08-08T08:45:43;2.20;;;1.40;;
40621;SDS011;26324;52.040;11.528;2023-08-08T08:48:18;2.25;;;1.02;;
40621;SDS011;26324;52.040;11.528;2023-08-08T08:50:47;1.27;;;0.85;;
40621;SDS011;26324;52.040;11.528;2023-08-08T08:53:15;1.67;;;1.02;;
40621;SDS011;26324;52.040;11.528;2023-08-08T08:58:14;2.05;;;1.13;;
40621;SDS011;26324;52.040;11.528;2023-08-08T09:00:46;1.80;;;0.95;;
40621;SDS011;26324;52.040;11.528;2023-08-08T09:03:14;1.90;;;0.77;;
40621;SDS011;26324;52.040;11.528;2023-08-08T09:05:43;1.85;;;0.82;;
40621;SDS011;26324;52.040;11.528;2023-08-08T09:08:11;2.83;;;0.68;;
40621;SDS011;26324;52.040;11.528;2023-08-08T09:10:39;1.40;;;0.80;;
40621;SDS011;26324;52.040;11.528;2023-08-08T09:13:07;1.73;;;1.05;;
40621;SDS011;26324;52.040;11.528;2023-08-08T09:15:34;1.55;;;0.73;;
40621;SDS011;26324;52.040;11.528;2023-08-08T09:18:02;1.17;;;0.68;;
40621;SDS011;26324;52.040;11.528;2023-08-08T09:20:30;0.85;;;0.73;;
40621;SDS011;26324;52.040;11.528;2023-08-08T09:22:57;0.88;;;0.70;;
40621;SDS011;26324;52.040;11.528;2023-08-08T09:25:25;1.85;;;0.90;;
40621;SDS011;26324;52.040;11.528;2023-08-08T09:32:48;1.58;;;0.75;;
40621;SDS011;26324;52.040;11.528;2023-08-08T09:35:16;3.17;;;0.80;;
40621;SDS011;26324;52.040;11.528;2023-08-08T09:37:43;1.38;;;0.70;;
40621;SDS011;26324;52.040;11.528;2023-08-08T09:40:11;1.98;;;0.90;;
40621;SDS011;26324;52.040;11.528;2023-08-08T09:42:39;4.97;;;0.98;;
40621;SDS011;26324;52.040;11.528;2023-08-08T09:45:08;1.10;;;0.77;;
40621;SDS011;26324;52.040;11.528;2023-08-08T09:47:36;1.08;;;0.88;;
40621;SDS011;26324;52.040;11.528;2023-08-08T09:50:05;2.50;;;1.00;;
40621;SDS011;26324;52.040;11.528;2023-08-08T09:52:33;1.83;;;0.82;;
40621;SDS011;26324;52.040;11.528;2023-08-08T09:55:01;1.48;;;0.77;;
40621;SDS011;26324;52.040;11.528;2023-08-08T09:57:30;1.92;;;1.10;;
40621;SDS011;26324;52.040;11.528;2023-08-08T10:02:26;1.70;;;0.98;;
40621;SDS011;26324;52.040;11.528;2023-08-08T10:04:54;1.38;;;0.90;;
40621;SDS011;26324;52.040;11.528;2023-08-08T10:07:25;2.60;;;1.13;;
40621;SDS011;26324;52.040;11.528;2023-08-08T10:09:52;1.15;;;0.70;;
40621;SDS011;26324;52.040;11.528;2023-08-08T10:12:20;2.80;;;1.05;;
40621;SDS011;26324;52.040;11.528;2023-08-08T10:14:49;3.03;;;1.15;;
40621;SDS011;26324;52.040;11.528;2023-08-08T10:17:17;1.20;;;0.85;;
40621;SDS011;26324;52.040;11.528;2023-08-08T10:22:22;1.98;;;0.90;;
40621;SDS011;26324;52.040;11.528;2023-08-08T10:24:52;1.88;;;1.08;;
40621;SDS011;26324;52.040;11.528;2023-08-08T10:27:27;1.95;;;1.20;;
40621;SDS011;26324;52.040;11.528;2023-08-08T10:30:02;2.55;;;0.95;;
40621;SDS011;26324;52.040;11.528;2023-08-08T10:32:37;2.97;;;1.60;;
40621;SDS011;26324;52.040;11.528;2023-08-08T10:35:09;1.95;;;1.08;;
40621;SDS011;26324;52.040;11.528;2023-08-08T10:37:38;1.90;;;1.15;;
40621;SDS011;26324;52.040;11.528;2023-08-08T10:40:06;2.83;;;0.98;;
40621;SDS011;26324;52.040;11.528;2023-08-08T10:42:42;1.38;;;1.20;;
40621;SDS011;26324;52.040;11.528;2023-08-08T10:45:11;3.03;;;1.05;;
40621;SDS011;26324;52.040;11.528;2023-08-08T10:47:40;1.85;;;1.25;;
40621;SDS011;26324;52.040;11.528;2023-08-08T10:50:14;3.40;;;1.23;;
40621;SDS011;26324;52.040;11.528;2023-08-08T10:55:23;3.15;;;1.25;;
40621;SDS011;26324;52.040;11.528;2023-08-08T10:57:58;2.20;;;1.48;;
40621;SDS011;26324;52.040;11.528;2023-08-08T11:00:30;2.22;;;1.20;;
40621;SDS011;26324;52.040;11.528;2023-08-08T11:03:00;2.10;;;1.27;;
40621;SDS011;26324;52.040;11.528;2023-08-08T11:05:29;1.75;;;1.40;;
40621;SDS011;26324;52.040;11.528;2023-08-08T11:07:58;2.38;;;1.25;;
40621;SDS011;26324;52.040;11.528;2023-08-08T11:10:26;3.13;;;1.30;;
40621;SDS011;26324;52.040;11.528;2023-08-08T11:12:59;7.30;;;1.88;;
40621;SDS011;26324;52.040;11.528;2023-08-08T11:15:32;7.20;;;1.25;;
40621;SDS011;26324;52.040;11.528;2023-08-08T11:18:01;3.05;;;1.30;;
40621;SDS011;26324;52.040;11.528;2023-08-08T11:20:33;4.35;;;1.73;;
40621;SDS011;26324;52.040;11.528;2023-08-08T11:23:02;3.75;;;1.60;;
40621;SDS011;26324;52.040;11.528;2023-08-08T11:28:06;3.80;;;1.50;;
40621;SDS011;26324;52.040;11.528;2023-08-08T11:30:38;4.53;;;2.03;;
40621;SDS011;26324;52.040;11.528;2023-08-08T11:33:08;3.80;;;1.55;;
40621;SDS011;26324;52.040;11.528;2023-08-08T11:35:42;2.47;;;1.40;;
40621;SDS011;26324;52.040;11.528;2023-08-08T11:38:13;2.22;;;1.17;;
40621;SDS011;26324;52.040;11.528;2023-08-08T11:40:41;2.47;;;1.50;;
40621;SDS011;26324;52.040;11.528;2023-08-08T11:43:09;2.85;;;1.48;;
40621;SDS011;26324;52.040;11.528;2023-08-08T11:45:38;3.38;;;1.55;;
40621;SDS011;26324;52.040;11.528;2023-08-08T11:48:07;2.30;;;1.60;;
40621;SDS011;26324;52.040;11.528;2023-08-08T11:50:36;2.97;;;1.45;;
40621;SDS011;26324;52.040;11.528;2023-08-08T11:53:04;4.10;;;2.05;;
40621;SDS011;26324;52.040;11.528;2023-08-08T11:55:33;3.50;;;1.70;;
40621;SDS011;26324;52.040;11.528;2023-08-08T11:58:03;3.22;;;1.60;;
40621;SDS011;26324;52.040;11.528;2023-08-08T12:00:32;2.38;;;1.42;;
40621;SDS011;26324;52.040;11.528;2023-08-08T12:03:01;3.80;;;1.33;;
40621;SDS011;26324;52.040;11.528;2023-08-08T12:05:35;2.22;;;1.30;;
40621;SDS011;26324;52.040;11.528;2023-08-08T12:08:05;3.10;;;1.60;;
40621;SDS011;26324;52.040;11.528;2023-08-08T12:10:33;3.17;;;1.50;;
40621;SDS011;26324;52.040;11.528;2023-08-08T12:13:00;2.95;;;1.45;;
40621;SDS011;26324;52.040;11.528;2023-08-08T12:15:28;3.05;;;1.63;;
40621;SDS011;26324;52.040;11.528;2023-08-08T12:17:58;2.85;;;1.58;;
40621;SDS011;26324;52.040;11.528;2023-08-08T12:20:27;3.63;;;1.85;;
40621;SDS011;26324;52.040;11.528;2023-08-08T12:22:57;3.60;;;1.50;;
40621;SDS011;26324;52.040;11.528;2023-08-08T12:25:24;2.85;;;1.23;;
40621;SDS011;26324;52.040;11.528;2023-08-08T12:27:52;3.92;;;1.55;;
40621;SDS011;26324;52.040;11.528;2023-08-08T12:30:19;3.85;;;1.58;;
40621;SDS011;26324;52.040;11.528;2023-08-08T12:32:46;2.20;;;1.08;;
40621;SDS011;26324;52.040;11.528;2023-08-08T12:35:14;3.33;;;1.23;;
40621;SDS011;26324;52.040;11.528;2023-08-08T12:37:43;1.50;;;0.95;;
40621;SDS011;26324;52.040;11.528;2023-08-08T12:40:11;1.45;;;1.02;;
40621;SDS011;26324;52.040;11.528;2023-08-08T12:45:06;1.75;;;1.10;;
40621;SDS011;26324;52.040;11.528;2023-08-08T12:47:34;3.30;;;1.30;;
40621;SDS011;26324;52.040;11.528;2023-08-08T12:50:04;2.10;;;0.90;;
40621;SDS011;26324;52.040;11.528;2023-08-08T12:55:00;2.55;;;1.13;;
40621;SDS011;26324;52.040;11.528;2023-08-08T12:57:28;2.42;;;0.95;;
40621;SDS011;26324;52.040;11.528;2023-08-08T12:59:56;2.28;;;1.10;;
40621;SDS011;26324;52.040;11.528;2023-08-08T13:02:23;2.47;;;1.08;;
40621;SDS011;26324;52.040;11.528;2023-08-08T13:04:51;2.67;;;0.82;;
40621;SDS011;26324;52.040;11.528;2023-08-08T13:07:18;1.77;;;0.88;;
40621;SDS011;26324;52.040;11.528;2023-08-08T13:09:45;1.45;;;0.90;;
40621;SDS011;26324;52.040;11.528;2023-08-08T13:12:13;1.95;;;0.88;;
40621;SDS011;26324;52.040;11.528;2023-08-08T13:14:40;1.15;;;0.82;;
40621;SDS011;26324;52.040;11.528;2023-08-08T13:17:08;3.05;;;0.90;;
40621;SDS011;26324;52.040;11.528;2023-08-08T13:19:36;2.40;;;1.00;;
40621;SDS011;26324;52.040;11.528;2023-08-08T13:22:03;1.80;;;1.05;;
40621;SDS011;26324;52.040;11.528;2023-08-08T13:24:31;2.83;;;1.00;;
40621;SDS011;26324;52.040;11.528;2023-08-08T13:26:58;2.63;;;0.90;;
40621;SDS011;26324;52.040;11.528;2023-08-08T13:29:26;1.75;;;0.95;;
40621;SDS011;26324;52.040;11.528;2023-08-08T13:31:53;4.13;;;1.00;;
40621;SDS011;26324;52.040;11.528;2023-08-08T13:34:20;2.60;;;1.10;;
40621;SDS011;26324;52.040;11.528;2023-08-08T13:36:48;1.73;;;1.05;;
40621;SDS011;26324;52.040;11.528;2023-08-08T13:39:15;3.38;;;1.10;;
40621;SDS011;26324;52.040;11.528;2023-08-08T13:41:43;1.67;;;0.70;;
40621;SDS011;26324;52.040;11.528;2023-08-08T13:44:10;1.35;;;0.85;;
40621;SDS011;26324;52.040;11.528;2023-08-08T13:46:37;4.00;;;1.10;;
40621;SDS011;26324;52.040;11.528;2023-08-08T13:49:05;1.77;;;1.10;;
40621;SDS011;26324;52.040;11.528;2023-08-08T13:51:32;2.70;;;0.88;;
40621;SDS011;26324;52.040;11.528;2023-08-08T13:54:00;1.60;;;0.70;;
40621;SDS011;26324;52.040;11.528;2023-08-08T13:56:27;4.28;;;1.08;;
40621;SDS011;26324;52.040;11.528;2023-08-08T13:58:55;1.80;;;1.05;;
40621;SDS011;26324;52.040;11.528;2023-08-08T14:01:22;2.15;;;0.80;;
40621;SDS011;26324;52.040;11.528;2023-08-08T14:03:50;3.15;;;0.82;;
40621;SDS011;26324;52.040;11.528;2023-08-08T14:06:17;2.55;;;0.75;;
40621;SDS011;26324;52.040;11.528;2023-08-08T14:08:44;2.42;;;0.98;;
40621;SDS011;26324;52.040;11.528;2023-08-08T14:11:12;1.25;;;0.82;;
40621;SDS011;26324;52.040;11.528;2023-08-08T14:13:39;2.15;;;0.85;;
40621;SDS011;26324;52.040;11.528;2023-08-08T14:16:07;1.33;;;0.73;;
40621;SDS011;26324;52.040;11.528;2023-08-08T14:18:35;3.67;;;1.20;;
40621;SDS011;26324;52.040;11.528;2023-08-08T14:21:02;2.45;;;0.80;;
40621;SDS011;26324;52.040;11.528;2023-08-08T14:23:31;1.77;;;0.80;;
40621;SDS011;26324;52.040;11.528;2023-08-08T14:25:58;2.15;;;0.77;;
40621;SDS011;26324;52.040;11.528;2023-08-08T14:28:26;2.15;;;0.90;;
40621;SDS011;26324;52.040;11.528;2023-08-08T14:30:55;1.63;;;0.80;;
40621;SDS011;26324;52.040;11.528;2023-08-08T14:33:22;2.42;;;1.00;;
40621;SDS011;26324;52.040;11.528;2023-08-08T14:35:50;2.08;;;0.90;;
40621;SDS011;26324;52.040;11.528;2023-08-08T14:38:17;2.00;;;0.75;;
40621;SDS011;26324;52.040;11.528;2023-08-08T14:40:44;1.35;;;0.73;;
40621;SDS011;26324;52.040;11.528;2023-08-08T14:43:12;0.95;;;0.73;;
40621;SDS011;26324;52.040;11.528;2023-08-08T14:45:39;1.88;;;1.00;;
40621;SDS011;26324;52.040;11.528;2023-08-08T14:48:07;2.28;;;1.00;;
40621;SDS011;26324;52.040;11.528;2023-08-08T14:50:35;3.80;;;1.00;;
40621;SDS011;26324;52.040;11.528;2023-08-08T14:53:03;2.47;;;0.73;;
40621;SDS011;26324;52.040;11.528;2023-08-08T14:55:30;1.42;;;0.70;;
40621;SDS011;26324;52.040;11.528;2023-08-08T14:57:58;2.88;;;0.98;;
40621;SDS011;26324;52.040;11.528;2023-08-08T15:00:25;1.45;;;0.70;;
40621;SDS011;26324;52.040;11.528;2023-08-08T15:02:52;2.13;;;1.00;;
40621;SDS011;26324;52.040;11.528;2023-08-08T15:05:20;2.67;;;0.70;;
40621;SDS011;26324;52.040;11.528;2023-08-08T15:07:47;1.60;;;0.80;;